createdAt,value
2019-05-20T00:00:09.392Z,36.45
2019-05-20T00:02:38.713Z,34.53
2019-05-20T00:05:08.192Z,35.48
2019-05-20T00:07:37.420Z,33.13
2019-05-20T00:10:07.473Z,33.45
2019-05-20T00:12:36.840Z,34.67
2019-05-20T00:15:06.165Z,34.55
2019-05-20T00:17:35.820Z,30.65
2019-05-20T00:20:05.550Z,30.72
2019-05-20T00:22:34.763Z,29.75
2019-05-20T00:25:04.488Z,32.03
2019-05-20T00:27:33.776Z,30.20
2019-05-20T00:30:03.045Z,29.67
2019-05-20T00:32:41.215Z,29.42
2019-05-20T00:35:03.329Z,27.50
2019-05-20T00:37:32.583Z,23.98
2019-05-20T00:40:01.872Z,21.85
2019-05-20T00:42:31.409Z,20.88
2019-05-20T00:45:00.926Z,21.75
2019-05-20T00:47:30.183Z,20.15
2019-05-20T00:49:59.385Z,18.82
2019-05-20T00:52:28.559Z,19.67
2019-05-20T00:54:57.896Z,21.33
2019-05-20T00:57:27.210Z,20.25
2019-05-20T00:59:56.388Z,19.98
2019-05-20T01:02:25.709Z,18.98
2019-05-20T01:04:54.905Z,21.70
2019-05-20T01:07:24.125Z,19.98
2019-05-20T01:09:53.397Z,19.95
2019-05-20T01:12:22.717Z,18.15
2019-05-20T01:14:51.981Z,19.55
2019-05-20T01:17:21.179Z,19.25
2019-05-20T01:19:50.423Z,19.70
2019-05-20T01:22:19.639Z,19.30
2019-05-20T01:24:48.877Z,20.30
2019-05-20T01:27:18.098Z,19.52
2019-05-20T01:29:47.381Z,19.27
2019-05-20T01:32:16.682Z,22.62
2019-05-20T01:34:45.885Z,19.77
2019-05-20T01:37:15.101Z,19.50
2019-05-20T01:39:44.345Z,21.45
2019-05-20T01:42:13.577Z,22.10
2019-05-20T01:44:42.881Z,22.27
2019-05-20T01:47:12.184Z,22.37
2019-05-20T01:49:41.352Z,19.60
2019-05-20T01:52:10.588Z,19.75
2019-05-20T01:54:39.777Z,18.55
2019-05-20T01:57:08.964Z,18.95
2019-05-20T01:59:38.264Z,16.60
2019-05-20T02:02:07.468Z,18.00
2019-05-20T02:04:36.668Z,16.27
2019-05-20T02:07:05.969Z,16.42
2019-05-20T02:09:35.277Z,16.17
2019-05-20T02:12:04.465Z,16.75
2019-05-20T02:14:38.100Z,16.30
2019-05-20T02:17:07.293Z,15.93
2019-05-20T02:19:36.579Z,16.07
2019-05-20T02:22:05.909Z,16.05
2019-05-20T02:24:35.180Z,16.82
2019-05-20T02:27:04.581Z,16.62
2019-05-20T02:29:33.878Z,16.35
2019-05-20T02:32:03.080Z,15.95
2019-05-20T02:34:32.395Z,16.95
2019-05-20T02:37:01.707Z,15.60
2019-05-20T02:39:30.990Z,14.85
2019-05-20T02:42:00.282Z,16.62
2019-05-20T02:44:29.626Z,17.50
2019-05-20T02:46:58.885Z,18.82
2019-05-20T02:49:28.173Z,19.20
2019-05-20T02:51:57.393Z,18.48
2019-05-20T02:54:26.571Z,18.77
2019-05-20T02:56:56.921Z,19.05
2019-05-20T02:59:26.139Z,20.82
2019-05-20T03:01:55.417Z,19.60
2019-05-20T03:04:24.601Z,20.30
2019-05-20T03:06:53.897Z,17.57
2019-05-20T03:09:23.117Z,18.32
2019-05-20T03:11:52.295Z,19.07
2019-05-20T03:14:21.687Z,17.70
2019-05-20T03:16:50.950Z,16.90
2019-05-20T03:19:20.090Z,18.60
2019-05-20T03:21:49.486Z,18.30
2019-05-20T03:24:18.693Z,18.05
2019-05-20T03:26:48.036Z,18.10
2019-05-20T03:29:17.336Z,19.02
2019-05-20T03:31:46.637Z,18.92
2019-05-20T03:34:41.920Z,19.12
2019-05-20T03:36:46.856Z,18.57
2019-05-20T03:39:16.133Z,19.62
2019-05-20T03:41:45.461Z,18.27
2019-05-20T03:44:14.712Z,18.92
2019-05-20T03:46:43.953Z,18.60
2019-05-20T03:49:13.242Z,19.52
2019-05-20T03:51:42.582Z,18.55
2019-05-20T03:54:11.845Z,18.10
2019-05-20T03:56:41.120Z,21.12
2019-05-20T03:59:10.346Z,19.30
2019-05-20T04:01:39.544Z,19.42
2019-05-20T04:04:08.856Z,20.27
2019-05-20T04:06:38.131Z,18.98
2019-05-20T04:09:07.961Z,19.02
2019-05-20T04:11:37.749Z,20.45
2019-05-20T04:14:07.047Z,18.10
2019-05-20T04:16:36.369Z,19.32
2019-05-20T04:19:05.550Z,20.05
2019-05-20T04:21:34.889Z,18.40
2019-05-20T04:24:04.510Z,18.70
2019-05-20T04:26:33.845Z,19.85
2019-05-20T04:29:03.517Z,19.57
2019-05-20T04:31:32.759Z,18.15
2019-05-20T04:34:02.105Z,18.98
2019-05-20T04:36:31.494Z,19.07
2019-05-20T04:39:00.798Z,18.20
2019-05-20T04:41:30.141Z,17.07
2019-05-20T04:43:59.440Z,17.70
2019-05-20T04:46:28.797Z,17.65
2019-05-20T04:48:58.094Z,18.92
2019-05-20T04:51:27.289Z,18.95
2019-05-20T04:53:56.625Z,17.42
2019-05-20T04:56:29.307Z,17.00
2019-05-20T04:58:58.904Z,19.23
2019-05-20T05:01:34.212Z,19.42
2019-05-20T05:04:03.464Z,18.67
2019-05-20T05:06:32.773Z,17.70
2019-05-20T05:09:15.044Z,18.80
2019-05-20T05:11:42.716Z,18.35
2019-05-20T05:14:12.050Z,18.52
2019-05-20T05:16:45.414Z,17.90
2019-05-20T05:19:14.708Z,18.15
2019-05-20T05:21:56.139Z,16.77
2019-05-20T05:24:36.885Z,15.90
2019-05-20T05:27:06.214Z,16.10
2019-05-20T05:29:35.676Z,17.00
2019-05-20T05:32:04.950Z,16.73
2019-05-20T05:34:34.434Z,17.95
2019-05-20T05:37:03.801Z,17.73
2019-05-20T05:39:33.146Z,16.57
2019-05-20T05:42:06.743Z,17.77
2019-05-20T05:44:36.073Z,14.47
2019-05-20T05:47:16.635Z,16.65
2019-05-20T05:49:45.916Z,16.55
2019-05-20T05:52:15.093Z,16.73
2019-05-20T05:54:44.397Z,14.68
2019-05-20T05:57:13.734Z,14.73
2019-05-20T05:59:43.028Z,14.20
2019-05-20T06:02:12.313Z,16.12
2019-05-20T06:04:41.645Z,13.80
2019-05-20T06:07:10.837Z,14.38
2019-05-20T06:09:40.471Z,12.15
2019-05-20T06:12:09.736Z,12.82
2019-05-20T06:14:41.124Z,13.85
2019-05-20T06:17:10.405Z,12.23
2019-05-20T06:19:39.551Z,13.05
2019-05-20T06:22:08.785Z,13.75
2019-05-20T06:24:39.140Z,12.85
2019-05-20T06:27:08.372Z,12.73
2019-05-20T06:29:37.622Z,11.45
2019-05-20T06:32:06.922Z,12.30
2019-05-20T06:34:36.178Z,11.95
2019-05-20T06:37:07.730Z,11.22
2019-05-20T06:39:44.381Z,12.15
2019-05-20T06:42:13.729Z,11.12
2019-05-20T06:44:52.118Z,11.75
2019-05-20T06:47:14.073Z,12.37
2019-05-20T06:49:43.410Z,13.48
2019-05-20T06:52:12.657Z,12.90
2019-05-20T06:54:41.997Z,12.40
2019-05-20T06:57:11.463Z,12.60
2019-05-20T06:59:40.704Z,13.53
2019-05-20T07:02:09.981Z,12.80
2019-05-20T07:04:40.310Z,12.90
2019-05-20T07:07:20.356Z,13.17
2019-05-20T07:09:41.584Z,11.40
2019-05-20T07:12:14.849Z,11.13
2019-05-20T07:14:46.250Z,12.87
2019-05-20T07:17:15.473Z,11.83
2019-05-20T07:19:44.730Z,11.45
2019-05-20T07:22:13.960Z,13.80
2019-05-20T07:24:49.289Z,13.50
2019-05-20T07:27:18.625Z,14.87
2019-05-20T07:29:47.970Z,13.97
2019-05-20T07:32:22.783Z,15.40
2019-05-20T07:34:52.027Z,14.37
2019-05-20T07:37:21.236Z,14.87
2019-05-20T07:39:56.989Z,12.80
2019-05-20T07:42:27.361Z,13.43
2019-05-20T07:44:56.641Z,13.03
2019-05-20T07:47:26.993Z,12.60
2019-05-20T07:49:56.467Z,13.70
2019-05-20T07:52:26.360Z,14.37
2019-05-20T07:54:56.224Z,14.40
2019-05-20T07:57:34.661Z,16.00
2019-05-20T08:00:04.166Z,15.87
2019-05-20T08:02:33.956Z,15.40
2019-05-20T08:05:03.780Z,16.03
2019-05-20T08:07:50.359Z,14.60
2019-05-20T08:10:04.431Z,14.47
2019-05-20T08:12:33.748Z,15.10
2019-05-20T08:15:03.019Z,16.70
2019-05-20T08:17:32.187Z,16.17
2019-05-20T08:20:01.556Z,14.60
2019-05-20T08:22:30.840Z,16.33
2019-05-20T08:25:00.132Z,16.70
2019-05-20T08:27:40.690Z,16.90
2019-05-20T08:30:14.069Z,16.00
2019-05-20T08:32:41.887Z,16.83
2019-05-20T08:35:11.445Z,15.00
2019-05-20T08:37:46.280Z,16.20
2019-05-20T08:40:15.694Z,16.20
2019-05-20T08:42:44.900Z,16.10
2019-05-20T08:45:15.201Z,17.90
2019-05-20T08:47:44.379Z,17.20
2019-05-20T08:50:16.351Z,17.40
2019-05-20T08:52:44.742Z,15.97
2019-05-20T08:55:25.119Z,17.57
2019-05-20T08:57:55.887Z,15.93
2019-05-20T09:00:25.815Z,16.30
2019-05-20T09:02:55.589Z,15.50
2019-05-20T09:05:27.925Z,16.83
2019-05-20T09:08:02.929Z,16.93
2019-05-20T09:10:26.717Z,16.97
2019-05-20T09:12:56.060Z,19.20
2019-05-20T09:15:25.250Z,16.70
2019-05-20T09:17:54.545Z,16.97
2019-05-20T09:20:24.110Z,28.17
2019-05-20T09:22:53.434Z,15.47
2019-05-20T09:25:30.775Z,18.00
2019-05-20T09:28:01.516Z,24.33
2019-05-20T09:30:30.854Z,17.60
2019-05-20T09:33:00.109Z,16.57
2019-05-20T09:35:36.870Z,14.77
2019-05-20T09:38:19.782Z,14.60
2019-05-20T09:40:42.614Z,15.50
2019-05-20T09:43:11.948Z,14.70
2019-05-20T09:45:42.322Z,13.20
2019-05-20T09:48:13.825Z,15.20
2019-05-20T09:50:46.211Z,13.60
2019-05-20T09:53:15.451Z,13.93
2019-05-20T09:55:44.784Z,14.23
2019-05-20T09:58:14.038Z,15.10
2019-05-20T10:00:43.356Z,15.80
2019-05-20T10:03:14.672Z,13.37
2019-05-20T10:05:43.917Z,14.40
2019-05-20T10:08:13.219Z,17.20
2019-05-20T10:10:43.593Z,18.13
2019-05-20T10:13:12.869Z,19.93
2019-05-20T10:15:42.163Z,19.20
2019-05-20T10:18:11.504Z,19.73
2019-05-20T10:20:40.757Z,19.30
2019-05-20T10:23:10.001Z,18.30
2019-05-20T10:25:39.338Z,17.37
2019-05-20T10:28:10.709Z,17.80
2019-05-20T10:30:40.097Z,16.53
2019-05-20T10:33:10.949Z,17.90
2019-05-20T10:35:47.806Z,17.27
2019-05-20T10:38:18.134Z,17.10
2019-05-20T10:40:48.476Z,17.03
2019-05-20T10:43:17.737Z,16.77
2019-05-20T10:45:47.039Z,16.43
2019-05-20T10:48:16.282Z,15.53
2019-05-20T10:50:45.563Z,14.57
2019-05-20T10:53:14.893Z,16.03
2019-05-20T10:56:04.506Z,16.03
2019-05-20T10:58:33.833Z,17.57
2019-05-20T11:01:05.304Z,19.73
2019-05-20T11:03:35.970Z,18.77
2019-05-20T11:06:05.578Z,18.43
2019-05-20T11:08:35.263Z,18.10
2019-05-20T11:11:15.260Z,17.57
2019-05-20T11:13:44.570Z,16.10
2019-05-20T11:16:13.905Z,14.37
2019-05-20T11:18:43.087Z,14.20
2019-05-20T11:21:13.272Z,14.53
2019-05-20T11:23:42.480Z,14.07
2019-05-20T11:26:17.787Z,17.37
2019-05-20T11:28:47.094Z,18.40
2019-05-20T11:31:16.373Z,19.30
2019-05-20T11:33:45.658Z,17.90
2019-05-20T11:36:14.925Z,19.53
2019-05-20T11:38:44.203Z,21.43
2019-05-20T11:41:13.461Z,19.27
2019-05-20T11:43:42.758Z,20.33
2019-05-20T11:46:12.054Z,19.10
2019-05-20T11:48:41.349Z,17.97
2019-05-20T11:51:10.558Z,17.33
2019-05-20T11:53:39.940Z,17.47
2019-05-20T11:56:12.296Z,19.10
2019-05-20T11:58:42.573Z,18.33
2019-05-20T12:01:11.842Z,19.77
2019-05-20T12:03:41.194Z,21.87
2019-05-20T12:06:10.559Z,20.37
2019-05-20T12:08:39.917Z,20.90
2019-05-20T12:11:09.253Z,22.73
2019-05-20T12:13:38.460Z,23.97
2019-05-20T12:16:07.677Z,23.87
2019-05-20T12:18:36.953Z,21.80
2019-05-20T12:21:06.165Z,21.83
2019-05-20T12:23:36.562Z,22.13
2019-05-20T12:26:05.738Z,22.37
2019-05-20T12:28:35.027Z,24.57
2019-05-20T12:31:04.309Z,22.10
2019-05-20T12:33:33.577Z,25.97
2019-05-20T12:36:02.821Z,26.60
2019-05-20T12:38:32.078Z,30.00
2019-05-20T12:41:01.463Z,31.23
2019-05-20T12:43:30.691Z,30.77
2019-05-20T12:46:00.009Z,29.47
2019-05-20T12:48:29.275Z,27.67
2019-05-20T12:50:58.578Z,27.53
2019-05-20T12:53:27.898Z,26.83
2019-05-20T12:55:57.277Z,29.10
2019-05-20T12:58:26.501Z,29.70
2019-05-20T13:00:55.982Z,26.50
2019-05-20T13:03:25.294Z,26.97
2019-05-20T13:05:54.586Z,29.63
2019-05-20T13:08:23.975Z,27.93
2019-05-20T13:10:53.297Z,31.60
2019-05-20T13:13:22.517Z,31.20
2019-05-20T13:15:51.706Z,28.70
2019-05-20T13:18:25.641Z,28.47
2019-05-20T13:20:54.893Z,29.83
2019-05-20T13:23:24.193Z,30.30
2019-05-20T13:25:53.347Z,31.13
2019-05-20T13:28:22.563Z,32.73
2019-05-20T13:30:51.815Z,32.53
2019-05-20T13:33:21.164Z,32.80
2019-05-20T13:35:50.490Z,34.07
2019-05-20T13:38:19.796Z,32.20
2019-05-20T13:40:49.107Z,30.30
2019-05-20T13:43:18.431Z,30.97
2019-05-20T13:45:48.320Z,31.97
2019-05-20T13:48:17.834Z,31.83
2019-05-20T13:50:47.231Z,31.13
2019-05-20T13:53:16.513Z,31.00
2019-05-20T13:55:45.624Z,30.20
2019-05-20T13:58:14.889Z,29.07
2019-05-20T14:00:44.330Z,27.37
2019-05-20T14:03:13.541Z,28.50
2019-05-20T14:05:42.888Z,27.27
2019-05-20T14:08:12.494Z,26.73
2019-05-20T14:10:42.191Z,27.90
2019-05-20T14:13:12.906Z,25.73
2019-05-20T14:15:42.197Z,24.47
2019-05-20T14:18:11.495Z,23.80
2019-05-20T14:20:40.793Z,24.00
2019-05-20T14:23:10.068Z,23.70
2019-05-20T14:25:39.442Z,23.13
2019-05-20T14:28:08.657Z,24.27
2019-05-20T14:30:37.876Z,25.83
2019-05-20T14:33:07.175Z,23.93
2019-05-20T14:35:36.516Z,23.50
2019-05-20T14:38:05.831Z,26.77
2019-05-20T14:40:35.162Z,24.83
2019-05-20T14:43:04.511Z,27.47
2019-05-20T14:45:33.727Z,34.50
2019-05-20T14:48:07.301Z,37.00
2019-05-20T14:50:40.399Z,37.77
2019-05-20T14:53:34.109Z,38.77
2019-05-20T14:56:38.364Z,37.30
2019-05-20T14:59:08.883Z,38.27
2019-05-20T15:01:42.637Z,41.37
2019-05-20T15:04:14.229Z,39.27
2019-05-20T15:06:43.622Z,40.80
2019-05-20T15:09:17.762Z,39.07
2019-05-20T15:11:48.151Z,39.03
2019-05-20T15:14:17.418Z,38.80
2019-05-20T15:16:47.820Z,40.30
2019-05-20T15:19:17.026Z,39.77
2019-05-20T15:21:46.340Z,38.77
2019-05-20T15:24:15.666Z,38.43
2019-05-20T15:26:45.018Z,40.23
2019-05-20T15:29:27.392Z,40.20
2019-05-20T15:31:45.250Z,40.33
2019-05-20T15:34:14.605Z,39.07
2019-05-20T15:36:43.996Z,39.33
2019-05-20T15:39:13.339Z,44.93
2019-05-20T15:41:42.639Z,44.60
2019-05-20T15:44:12.031Z,44.30
2019-05-20T15:46:42.325Z,42.77
2019-05-20T15:49:11.646Z,42.73
2019-05-20T15:51:40.908Z,43.27
2019-05-20T15:54:10.198Z,43.43
2019-05-20T15:56:39.577Z,42.00
2019-05-20T15:59:08.925Z,39.77
2019-05-20T16:01:38.120Z,40.37
2019-05-20T16:04:07.366Z,35.20
2019-05-20T16:06:36.775Z,33.73
2019-05-20T16:09:07.481Z,31.83
2019-05-20T16:11:36.823Z,31.67
2019-05-20T16:14:06.263Z,32.60
2019-05-20T16:16:35.525Z,35.30
2019-05-20T16:19:04.868Z,36.47
2019-05-20T16:21:35.081Z,43.47
2019-05-20T16:24:04.573Z,38.23
2019-05-20T16:26:35.096Z,39.43
2019-05-20T16:29:05.194Z,32.20
2019-05-20T16:31:35.071Z,33.90
2019-05-20T16:34:04.547Z,30.77
2019-05-20T16:36:33.931Z,33.20
2019-05-20T16:39:04.718Z,31.00
2019-05-20T16:41:34.102Z,29.47
2019-05-20T16:44:03.525Z,27.67
2019-05-20T16:46:32.820Z,28.23
2019-05-20T16:49:02.085Z,28.80
2019-05-20T16:51:31.413Z,29.87
2019-05-20T16:54:00.705Z,30.23
2019-05-20T16:56:31.888Z,33.47
2019-05-20T16:59:01.099Z,31.90
2019-05-20T17:01:30.422Z,34.00
2019-05-20T17:03:59.814Z,33.60
2019-05-20T17:06:29.144Z,30.77
2019-05-20T17:08:58.507Z,36.10
2019-05-20T17:11:27.806Z,30.87
2019-05-20T17:13:57.182Z,26.23
2019-05-20T17:16:26.549Z,26.63
2019-05-20T17:18:55.872Z,28.30
2019-05-20T17:21:25.139Z,37.70
2019-05-20T17:23:54.595Z,30.73
2019-05-20T17:26:23.846Z,34.10
2019-05-20T17:28:53.230Z,38.77
2019-05-20T17:31:22.564Z,44.57
2019-05-20T17:33:52.111Z,41.77
2019-05-20T17:36:21.453Z,39.27
2019-05-20T17:38:50.700Z,41.63
2019-05-20T17:41:20.153Z,42.73
2019-05-20T17:43:49.562Z,41.53
2019-05-20T17:46:19.202Z,46.30
2019-05-20T17:48:48.676Z,45.48
2019-05-20T17:51:18.017Z,49.07
2019-05-20T17:53:47.418Z,62.45
2019-05-20T17:56:16.696Z,50.07
2019-05-20T17:58:45.989Z,53.50
2019-05-20T18:01:16.280Z,60.43
2019-05-20T18:03:45.858Z,58.87
2019-05-20T18:06:15.469Z,64.03
2019-05-20T18:08:51.278Z,61.43
2019-05-20T18:11:25.689Z,62.30
2019-05-20T18:13:55.097Z,66.70
2019-05-20T18:16:27.293Z,60.55
2019-05-20T18:18:56.590Z,56.40
2019-05-20T18:21:26.023Z,49.67
2019-05-20T18:24:06.238Z,51.00
2019-05-20T18:26:35.534Z,40.10
2019-05-20T18:29:04.909Z,45.05
2019-05-20T18:31:36.706Z,41.37
2019-05-20T18:34:07.049Z,46.95
2019-05-20T18:36:38.748Z,47.57
2019-05-20T18:39:08.014Z,48.35
2019-05-20T18:41:37.292Z,47.40
2019-05-20T18:44:06.598Z,49.00
2019-05-20T18:46:36.247Z,46.60
2019-05-20T18:49:05.617Z,46.08
2019-05-20T18:51:35.165Z,45.07
2019-05-20T18:54:12.077Z,43.73
2019-05-20T18:56:55.266Z,47.30
2019-05-20T18:59:37.117Z,46.07
2019-05-20T19:02:06.460Z,40.60
2019-05-20T19:04:35.762Z,42.13
2019-05-20T19:07:04.966Z,44.00
2019-05-20T19:09:34.184Z,45.63
2019-05-20T19:12:03.389Z,41.20
2019-05-20T19:14:34.730Z,43.57
2019-05-20T19:17:07.692Z,44.18
2019-05-20T19:19:38.601Z,47.00
2019-05-20T19:22:07.841Z,47.08
2019-05-20T19:24:37.094Z,44.67
2019-05-20T19:27:06.926Z,48.30
2019-05-20T19:29:36.359Z,47.45
2019-05-20T19:32:05.769Z,49.17
2019-05-20T19:34:35.090Z,54.48
2019-05-20T19:37:04.481Z,55.23
2019-05-20T19:39:38.932Z,50.73
2019-05-20T19:42:09.549Z,49.07
2019-05-20T19:44:38.855Z,45.10
2019-05-20T19:47:08.161Z,44.13
2019-05-20T19:49:42.113Z,46.77
2019-05-20T19:52:09.847Z,47.90
2019-05-20T19:54:41.657Z,47.40
2019-05-20T19:57:21.431Z,47.50
2019-05-20T19:59:50.638Z,46.83
2019-05-20T20:02:19.941Z,48.73
2019-05-20T20:04:49.207Z,48.78
2019-05-20T20:07:18.534Z,49.50
2019-05-20T20:09:47.754Z,48.65
2019-05-20T20:12:21.645Z,45.20
2019-05-20T20:14:51.063Z,47.17
2019-05-20T20:17:26.046Z,46.27
2019-05-20T20:20:00.435Z,41.68
2019-05-20T20:22:29.689Z,45.43
2019-05-20T20:24:58.905Z,41.48
2019-05-20T20:27:28.189Z,41.40
2019-05-20T20:29:57.483Z,40.70
2019-05-20T20:32:37.259Z,42.00
2019-05-20T20:34:57.879Z,41.60
2019-05-20T20:37:27.275Z,41.73
2019-05-20T20:39:56.733Z,42.30
2019-05-20T20:42:26.233Z,41.67
2019-05-20T20:44:55.536Z,42.20
2019-05-20T20:47:24.795Z,43.60
2019-05-20T20:49:54.075Z,43.87
2019-05-20T20:52:23.417Z,45.35
2019-05-20T20:55:00.001Z,45.50
2019-05-20T20:57:40.265Z,48.10
2019-05-20T21:00:23.621Z,46.83
2019-05-20T21:02:53.935Z,48.45
2019-05-20T21:05:23.466Z,46.08
2019-05-20T21:07:52.712Z,46.40
2019-05-20T21:10:21.929Z,47.75
2019-05-20T21:13:03.709Z,48.17
2019-05-20T21:15:32.998Z,46.30
2019-05-20T21:18:05.258Z,46.60
2019-05-20T21:20:34.531Z,46.07
2019-05-20T21:23:03.855Z,47.50
2019-05-20T21:25:33.184Z,46.53
2019-05-20T21:28:02.434Z,48.23
2019-05-20T21:30:31.752Z,51.02
2019-05-20T21:33:11.799Z,49.80
2019-05-20T21:35:45.769Z,51.37
2019-05-20T21:38:16.333Z,51.63
2019-05-20T21:40:51.853Z,49.67
2019-05-20T21:43:21.117Z,49.45
2019-05-20T21:45:51.321Z,53.48
2019-05-20T21:48:28.902Z,50.20
2019-05-20T21:51:09.361Z,51.00
2019-05-20T21:53:38.669Z,51.90
2019-05-20T21:56:07.945Z,52.95
2019-05-20T21:58:37.228Z,51.73
2019-05-20T22:01:08.856Z,50.20
2019-05-20T22:03:38.088Z,54.67
2019-05-20T22:06:07.393Z,51.10
2019-05-20T22:08:36.649Z,50.65
2019-05-20T22:11:26.503Z,53.17
2019-05-20T22:13:56.932Z,50.80
2019-05-20T22:16:29.665Z,51.93
2019-05-20T22:18:57.614Z,48.13
2019-05-20T22:21:40.841Z,53.40
2019-05-20T22:24:10.136Z,51.83
2019-05-20T22:26:39.455Z,54.30
2019-05-20T22:29:20.973Z,49.80
2019-05-20T22:31:50.266Z,51.80
2019-05-20T22:34:19.664Z,51.13
2019-05-20T22:36:49.152Z,52.40
2019-05-20T22:39:18.485Z,57.38
2019-05-20T22:41:47.807Z,56.53
2019-05-20T22:44:28.176Z,54.88
2019-05-20T22:47:20.252Z,57.38
2019-05-20T22:49:49.601Z,54.35
2019-05-20T22:52:26.630Z,55.80
2019-05-20T22:54:56.101Z,54.53
2019-05-20T23:01:32.846Z,52.17
2019-05-20T23:04:05.613Z,52.27
2019-05-20T23:06:37.146Z,47.95
2019-05-20T23:09:10.811Z,49.90
2019-05-20T23:11:40.510Z,51.85
2019-05-20T23:14:29.637Z,56.08
2019-05-20T23:17:01.673Z,53.02
2019-05-20T23:19:41.401Z,53.05
2019-05-20T23:22:18.205Z,54.88
2019-05-20T23:24:53.434Z,51.08
2019-05-20T23:27:34.558Z,55.55
2019-05-20T23:30:07.369Z,56.90
2019-05-20T23:35:48.011Z,54.63
2019-05-20T23:38:25.734Z,59.60
2019-05-20T23:42:11.035Z,57.08
2019-05-20T23:48:14.064Z,57.17
2019-05-20T23:51:05.855Z,63.33
2019-05-20T23:53:43.364Z,61.50
2019-05-20T23:56:19.842Z,63.60
2019-05-20T23:58:58.523Z,63.40
